Time;durP1;ratioP1;P1;durP2;ratioP2;P2;SDS_P1;SDS_P2;PMS_P1;PMS_P2;Temp;Humidity;BMP_temperature;BMP_pressure;BME280_temperature;BME280_humidity;BME280_pressure;Samples;Min_cycle;Max_cycle;Signal;HPM_P1;HPM_P2
2021/12/27 00:00:09;;;;;;;32.63;14.30;;;8.00;59.50;;;;;;5101719;28;24547;-84
2021/12/27 00:02:38;;;;;;;30.43;14.47;;;8.10;59.40;;;;;;5084700;28;20455;-85
2021/12/27 00:05:07;;;;;;;25.10;13.20;;;8.10;59.20;;;;;;5099628;28;20491;-85
2021/12/27 00:07:34;;;;;;;33.23;14.90;;;8.10;59.00;;;;;;5080210;28;20752;-85
2021/12/27 00:10:02;;;;;;;29.77;14.00;;;8.00;58.90;;;;;;5083879;28;20467;-84
2021/12/27 00:12:29;;;;;;;27.03;13.30;;;8.00;59.10;;;;;;5089232;28;20557;-85
2021/12/27 00:14:56;;;;;;;31.07;14.00;;;8.00;58.90;;;;;;5099977;27;20475;-83
2021/12/27 00:17:23;;;;;;;24.13;12.13;;;7.90;59.00;;;;;;5082284;28;20871;-84
2021/12/27 00:19:50;;;;;;;36.70;14.57;;;8.00;59.10;;;;;;5098784;27;20454;-84
2021/12/27 00:22:18;;;;;;;27.67;15.70;;;8.00;59.00;;;;;;5083542;28;21081;-85
2021/12/27 00:24:47;;;;;;;36.63;14.83;;;8.00;59.30;;;;;;5064601;27;20474;-85
2021/12/27 00:27:15;;;;;;;26.53;12.40;;;8.00;59.00;;;;;;5103289;27;20457;-85
2021/12/27 00:29:41;;;;;;;25.70;13.43;;;8.00;58.80;;;;;;5048639;28;20464;-85
2021/12/27 00:32:09;;;;;;;29.90;12.57;;;8.10;59.00;;;;;;5081374;28;20459;-84
2021/12/27 00:34:37;;;;;;;27.90;13.07;;;8.00;58.80;;;;;;5081923;28;20524;-85
2021/12/27 00:37:04;;;;;;;30.13;13.90;;;7.80;59.10;;;;;;5097958;28;20550;-85
2021/12/27 00:39:33;;;;;;;29.20;12.40;;;7.70;59.50;;;;;;5063777;28;20458;-85
2021/12/27 00:42:00;;;;;;;22.80;13.37;;;7.70;59.70;;;;;;5099565;27;21018;-85
2021/12/27 00:44:28;;;;;;;36.87;14.60;;;7.60;59.50;;;;;;5097705;27;20466;-85
2021/12/27 00:46:55;;;;;;;23.83;12.77;;;7.80;59.50;;;;;;5065800;27;20941;-83
2021/12/27 00:49:22;;;;;;;22.57;11.43;;;7.80;59.50;;;;;;5094564;28;20860;-84
2021/12/27 00:51:50;;;;;;;20.33;12.90;;;7.90;59.30;;;;;;5095848;27;21162;-85
2021/12/27 00:54:17;;;;;;;23.13;12.23;;;8.00;59.20;;;;;;5075349;28;21010;-85
2021/12/27 00:56:46;;;;;;;29.23;13.00;;;8.10;59.30;;;;;;5096414;28;20458;-84
2021/12/27 00:59:13;;;;;;;27.87;12.50;;;8.10;59.30;;;;;;5069865;28;20967;-85
2021/12/27 01:01:40;;;;;;;31.47;12.93;;;8.00;59.00;;;;;;5077478;27;20458;-85
2021/12/27 01:04:08;;;;;;;29.77;12.83;;;7.90;59.00;;;;;;5094493;28;20488;-85
2021/12/27 01:06:35;;;;;;;25.20;12.57;;;8.00;59.30;;;;;;5075702;28;21054;-85
2021/12/27 01:09:03;;;;;;;22.50;12.00;;;8.00;59.20;;;;;;5092618;28;21064;-85
2021/12/27 01:11:40;;;;;;;23.30;13.00;;;8.10;59.30;;;;;;5095448;27;20454;-85
2021/12/27 01:14:13;;;;;;;23.00;12.07;;;8.00;59.30;;;;;;5096418;28;20486;-85
2021/12/27 01:16:41;;;;;;;21.30;11.80;;;8.10;59.00;;;;;;5095576;27;20483;-85
2021/12/27 01:19:08;;;;;;;23.83;12.70;;;8.10;59.20;;;;;;5078734;27;20473;-85
2021/12/27 01:21:36;;;;;;;27.53;11.77;;;8.10;59.10;;;;;;5067644;28;20939;-85
2021/12/27 01:24:05;;;;;;;19.30;11.13;;;8.10;59.20;;;;;;5093784;28;20475;-85
2021/12/27 01:26:32;;;;;;;25.00;11.90;;;8.20;59.10;;;;;;5069746;28;20471;-85
2021/12/27 01:29:00;;;;;;;22.90;11.80;;;8.20;58.80;;;;;;5094627;27;20455;-85
2021/12/27 01:31:29;;;;;;;20.37;11.50;;;8.20;58.80;;;;;;5095002;27;20511;-85
2021/12/27 01:33:56;;;;;;;22.27;11.77;;;8.20;58.20;;;;;;5094168;28;20539;-84
2021/12/27 01:36:23;;;;;;;18.10;10.30;;;7.90;59.00;;;;;;5077946;28;20471;-85
2021/12/27 01:38:50;;;;;;;22.37;12.00;;;7.90;59.20;;;;;;5079083;28;20513;-84
2021/12/27 01:41:19;;;;;;;23.20;11.13;;;8.00;59.20;;;;;;5095833;27;20463;-85
2021/12/27 01:43:46;;;;;;;23.83;11.50;;;8.00;59.10;;;;;;5077165;28;20474;-85
2021/12/27 01:46:16;;;;;;;21.67;10.73;;;8.10;59.10;;;;;;5094997;28;20474;-85
2021/12/27 01:48:53;;;;;;;21.60;10.97;;;8.10;59.20;;;;;;5069598;28;20582;-85
2021/12/27 01:51:21;;;;;;;23.07;11.40;;;8.00;59.20;;;;;;5082681;28;20459;-82
2021/12/27 01:53:49;;;;;;;19.37;11.50;;;8.10;59.20;;;;;;5095510;27;20883;-85
2021/12/27 01:56:20;;;;;;;17.40;11.03;;;8.10;58.80;;;;;;5084801;28;20997;-85
2021/12/27 01:58:48;;;;;;;24.90;11.37;;;8.10;58.50;;;;;;5095502;28;20454;-84
2021/12/27 02:01:15;;;;;;;26.23;12.87;;;8.10;59.00;;;;;;5093604;28;20462;-84
2021/12/27 02:03:43;;;;;;;27.57;12.73;;;8.00;59.10;;;;;;5096258;27;20483;-85
2021/12/27 02:06:13;;;;;;;20.37;11.20;;;8.00;59.10;;;;;;5093605;28;20463;-84
2021/12/27 02:08:42;;;;;;;23.57;13.67;;;8.00;59.10;;;;;;5078412;28;20981;-83
2021/12/27 02:11:10;;;;;;;19.10;11.23;;;7.90;59.00;;;;;;5061134;28;20529;-84
2021/12/27 02:13:42;;;;;;;22.30;13.00;;;8.00;59.00;;;;;;5077225;28;20841;-85
2021/12/27 02:16:09;;;;;;;22.40;11.63;;;8.00;59.00;;;;;;5076061;28;20475;-85
2021/12/27 02:18:37;;;;;;;17.77;10.50;;;7.90;59.10;;;;;;5094325;28;20847;-84
2021/12/27 02:21:05;;;;;;;22.27;12.30;;;7.90;59.10;;;;;;5081549;28;21388;-85
2021/12/27 02:23:32;;;;;;;19.20;12.10;;;8.00;59.30;;;;;;5066357;28;20887;-85
2021/12/27 02:25:59;;;;;;;18.27;9.40;;;8.00;59.20;;;;;;5074803;28;20455;-84
2021/12/27 02:28:27;;;;;;;20.77;10.60;;;7.90;59.70;;;;;;5067325;28;20461;-85
2021/12/27 02:30:55;;;;;;;16.63;11.30;;;7.80;59.80;;;;;;5095936;27;20455;-86
2021/12/27 02:33:22;;;;;;;27.20;11.20;;;7.90;59.70;;;;;;5079475;28;20495;-84
2021/12/27 02:35:52;;;;;;;19.03;10.80;;;8.00;59.50;;;;;;5079008;28;20887;-84
2021/12/27 02:38:23;;;;;;;17.90;9.10;;;8.00;59.30;;;;;;5094651;28;20450;-85
2021/12/27 02:40:51;;;;;;;22.90;10.87;;;8.00;59.20;;;;;;5091683;28;20943;-83
2021/12/27 02:43:20;;;;;;;19.70;10.50;;;7.90;59.30;;;;;;5077519;28;20584;-84
2021/12/27 02:45:49;;;;;;;24.33;11.90;;;8.00;59.40;;;;;;5077393;28;20443;-85
2021/12/27 02:48:21;;;;;;;21.30;11.30;;;7.80;59.50;;;;;;5072924;28;20993;-84
2021/12/27 02:50:49;;;;;;;16.80;9.37;;;7.90;59.50;;;;;;5073743;28;20462;-85
2021/12/27 02:53:17;;;;;;;24.37;9.23;;;8.00;59.60;;;;;;5078446;28;20516;-84
2021/12/27 02:55:48;;;;;;;20.47;10.00;;;8.00;59.40;;;;;;5098578;28;20482;-85
2021/12/27 02:58:15;;;;;;;17.57;9.60;;;8.00;59.50;;;;;;5060165;28;20471;-85
2021/12/27 03:00:45;;;;;;;24.73;11.27;;;8.00;59.30;;;;;;5095889;28;20523;-85
2021/12/27 03:03:13;;;;;;;18.97;8.73;;;7.80;59.40;;;;;;5076218;28;21005;-85
2021/12/27 03:05:43;;;;;;;18.63;10.70;;;7.70;59.50;;;;;;5075548;28;20478;-85
2021/12/27 03:08:14;;;;;;;20.17;10.33;;;7.70;59.80;;;;;;5093866;28;20458;-84
2021/12/27 03:10:42;;;;;;;24.17;11.10;;;7.90;59.90;;;;;;5076325;28;20459;-85
2021/12/27 03:13:16;;;;;;;20.77;9.77;;;8.00;59.70;;;;;;5094644;28;20451;-85
2021/12/27 03:15:43;;;;;;;18.20;9.30;;;8.10;59.60;;;;;;5075774;28;20554;-85
2021/12/27 03:18:12;;;;;;;15.63;10.50;;;8.10;59.40;;;;;;5072720;27;20899;-83
2021/12/27 03:20:39;;;;;;;22.53;11.37;;;8.10;58.80;;;;;;5061322;28;20501;-84
2021/12/27 03:23:06;;;;;;;18.47;9.73;;;8.10;58.80;;;;;;5095412;28;20459;-85
2021/12/27 03:25:34;;;;;;;16.93;10.90;;;8.10;58.90;;;;;;5076901;28;20454;-85
2021/12/27 03:28:02;;;;;;;20.10;10.47;;;8.10;58.90;;;;;;5093239;28;20513;-85
2021/12/27 03:30:31;;;;;;;17.53;9.87;;;8.20;58.90;;;;;;5094612;28;20451;-85
2021/12/27 03:32:58;;;;;;;17.17;9.53;;;8.20;58.70;;;;;;5090747;28;20452;-85
2021/12/27 03:35:28;;;;;;;18.23;9.83;;;8.20;58.70;;;;;;5093812;28;20851;-85
2021/12/27 03:37:57;;;;;;;19.17;10.60;;;8.20;58.70;;;;;;5093960;28;20435;-85
2021/12/27 03:40:25;;;;;;;18.30;9.93;;;8.10;59.10;;;;;;5074644;28;20451;-85
2021/12/27 03:42:52;;;;;;;18.93;10.50;;;8.10;59.10;;;;;;5076275;28;20458;-85
2021/12/27 03:45:21;;;;;;;18.77;9.60;;;8.10;59.10;;;;;;5095533;28;20467;-85
2021/12/27 03:47:50;;;;;;;19.77;9.70;;;8.10;59.20;;;;;;5060187;28;20428;-85
2021/12/27 03:50:17;;;;;;;18.93;10.50;;;8.10;59.10;;;;;;5078708;28;20534;-85
2021/12/27 03:52:45;;;;;;;20.63;10.60;;;8.10;59.30;;;;;;5073243;28;20787;-85
2021/12/27 03:55:13;;;;;;;18.27;10.90;;;8.00;59.70;;;;;;5089683;28;20479;-85
2021/12/27 03:57:42;;;;;;;17.47;9.23;;;8.00;59.50;;;;;;5064443;28;20444;-85
2021/12/27 04:00:27;;;;;;;26.93;10.00;;;8.20;59.30;;;;;;5075770;28;20439;-85
2021/12/27 04:02:59;;;;;;;18.20;9.13;;;8.20;59.20;;;;;;5059990;28;20460;-85
2021/12/27 04:05:45;;;;;;;16.80;8.60;;;8.20;59.10;;;;;;5070257;28;20442;-82
2021/12/27 04:08:30;;;;;;;18.80;9.53;;;8.20;58.90;;;;;;5091583;28;20542;-85
2021/12/27 04:11:16;;;;;;;22.67;10.53;;;8.10;59.00;;;;;;5094417;28;20515;-85
2021/12/27 04:13:43;;;;;;;20.47;10.30;;;8.10;59.20;;;;;;5080301;28;20477;-85
2021/12/27 04:16:10;;;;;;;20.47;10.70;;;8.20;59.20;;;;;;5093627;28;20474;-82
2021/12/27 04:18:39;;;;;;;16.53;8.80;;;8.20;59.10;;;;;;5092257;28;20465;-84
2021/12/27 04:21:06;;;;;;;19.80;9.47;;;8.20;59.00;;;;;;5072753;28;20996;-85
2021/12/27 04:23:33;;;;;;;19.23;10.00;;;8.30;59.00;;;;;;5091832;28;20471;-85
2021/12/27 04:26:00;;;;;;;21.67;10.60;;;8.30;58.80;;;;;;5098061;28;21044;-85
2021/12/27 04:28:27;;;;;;;20.13;9.00;;;8.30;58.80;;;;;;5077733;28;20451;-84
2021/12/27 04:30:54;;;;;;;20.17;11.10;;;8.30;58.60;;;;;;5078591;28;20466;-85
2021/12/27 04:33:21;;;;;;;18.47;10.30;;;8.40;58.60;;;;;;5061026;28;20460;-84
2021/12/27 04:35:50;;;;;;;19.13;9.40;;;8.30;58.30;;;;;;5070928;28;20490;-85
2021/12/27 04:38:17;;;;;;;20.67;10.37;;;8.20;58.80;;;;;;5077762;28;20454;-85
2021/12/27 04:40:48;;;;;;;16.57;8.77;;;8.20;59.10;;;;;;5077701;27;20886;-85
2021/12/27 04:43:18;;;;;;;20.73;9.93;;;8.20;58.70;;;;;;5065436;28;20811;-85
2021/12/27 04:45:48;;;;;;;19.80;10.23;;;8.20;58.60;;;;;;5097455;28;20455;-84
2021/12/27 04:48:15;;;;;;;17.70;9.47;;;8.20;58.80;;;;;;5078941;28;20459;-85
2021/12/27 04:50:42;;;;;;;19.40;9.70;;;8.20;58.90;;;;;;5075710;28;20540;-85
2021/12/27 04:53:11;;;;;;;24.17;10.70;;;8.20;58.90;;;;;;5098827;27;20446;-87
2021/12/27 04:55:38;;;;;;;22.77;9.60;;;8.20;58.90;;;;;;5081128;27;20501;-85
2021/12/27 04:58:07;;;;;;;20.80;12.30;;;8.10;59.00;;;;;;5096128;28;20491;-85
2021/12/27 05:00:34;;;;;;;20.13;10.63;;;8.00;59.60;;;;;;5086119;27;20819;-85
2021/12/27 05:03:01;;;;;;;21.13;10.30;;;8.00;59.40;;;;;;5092279;28;20470;-85
2021/12/27 05:05:30;;;;;;;20.70;9.97;;;8.00;59.70;;;;;;5094909;28;20498;-85
2021/12/27 05:07:58;;;;;;;18.70;10.20;;;7.90;59.70;;;;;;5093120;28;20834;-83
2021/12/27 05:10:27;;;;;;;17.90;10.30;;;7.90;59.90;;;;;;5097591;28;20451;-85
2021/12/27 05:12:54;;;;;;;22.30;9.40;;;8.00;59.90;;;;;;5094857;28;20463;-84
2021/12/27 05:15:21;;;;;;;18.80;10.87;;;8.10;59.60;;;;;;5093809;27;20475;-85
2021/12/27 05:17:48;;;;;;;33.00;11.03;;;8.20;59.50;;;;;;5095563;28;20447;-84
2021/12/27 05:20:15;;;;;;;21.83;12.03;;;8.20;59.40;;;;;;5075392;28;20454;-85
2021/12/27 05:22:42;;;;;;;21.60;11.87;;;8.00;59.50;;;;;;5077555;28;20541;-85
2021/12/27 05:25:12;;;;;;;22.70;11.27;;;8.00;59.70;;;;;;5094682;27;20510;-85
2021/12/27 05:27:41;;;;;;;20.60;10.77;;;8.00;59.50;;;;;;5076689;28;20450;-84
2021/12/27 05:30:10;;;;;;;19.20;10.13;;;8.00;59.50;;;;;;5096549;27;20461;-85
2021/12/27 05:32:38;;;;;;;25.30;12.47;;;8.00;59.60;;;;;;5093851;27;20466;-83
2021/12/27 05:35:06;;;;;;;22.93;11.30;;;8.00;59.70;;;;;;5096069;28;20575;-85
2021/12/27 05:37:33;;;;;;;25.60;11.93;;;8.00;59.70;;;;;;5076809;28;20852;-85
2021/12/27 05:40:04;;;;;;;21.27;10.10;;;8.00;59.60;;;;;;5079082;28;20483;-85
2021/12/27 05:42:31;;;;;;;21.50;10.13;;;8.00;59.70;;;;;;5075755;28;20533;-84
2021/12/27 05:45:00;;;;;;;23.07;11.93;;;7.90;59.90;;;;;;5094157;28;20478;-85
2021/12/27 05:47:27;;;;;;;18.23;10.20;;;7.90;60.00;;;;;;5077727;28;20453;-85
2021/12/27 05:49:54;;;;;;;22.13;10.83;;;8.00;60.00;;;;;;5077897;28;20818;-84
2021/12/27 05:52:21;;;;;;;25.17;12.53;;;8.10;59.70;;;;;;5086481;28;20463;-84
2021/12/27 05:54:48;;;;;;;30.63;14.63;;;8.20;59.50;;;;;;5084442;28;20471;-86
2021/12/27 05:57:15;;;;;;;24.90;13.00;;;8.10;59.60;;;;;;5093619;28;20821;-85
2021/12/27 05:59:41;;;;;;;23.00;11.83;;;8.00;59.50;;;;;;5076020;28;21082;-85
2021/12/27 06:02:11;;;;;;;19.47;11.03;;;8.10;59.70;;;;;;5076787;28;20465;-85
2021/12/27 06:04:38;;;;;;;26.27;12.60;;;8.10;59.30;;;;;;5093625;28;20832;-85
2021/12/27 06:07:05;;;;;;;24.53;13.97;;;8.20;59.30;;;;;;5077312;28;20454;-85
2021/12/27 06:09:32;;;;;;;22.43;11.50;;;8.20;59.30;;;;;;5073706;28;20466;-85
2021/12/27 06:11:59;;;;;;;21.77;12.17;;;8.10;59.40;;;;;;5078593;28;20447;-85
2021/12/27 06:14:26;;;;;;;22.90;11.73;;;8.10;59.50;;;;;;5094127;28;20520;-85
2021/12/27 06:16:52;;;;;;;25.30;13.70;;;8.10;59.60;;;;;;5091749;28;20479;-85
2021/12/27 06:19:21;;;;;;;30.03;13.93;;;8.10;59.60;;;;;;5096459;28;20452;-85
2021/12/27 06:21:48;;;;;;;30.60;14.00;;;8.20;59.40;;;;;;5073205;28;21074;-85
2021/12/27 06:24:15;;;;;;;31.07;13.93;;;8.10;59.50;;;;;;5094236;28;20486;-85
2021/12/27 06:26:42;;;;;;;22.90;12.10;;;8.10;59.70;;;;;;5075963;27;20814;-86
2021/12/27 06:29:09;;;;;;;32.63;13.60;;;8.00;60.00;;;;;;5093167;28;20478;-85
2021/12/27 06:31:36;;;;;;;35.60;13.27;;;8.00;59.90;;;;;;5058754;28;20852;-84
2021/12/27 06:34:03;;;;;;;29.57;12.60;;;8.00;59.80;;;;;;5074125;28;20472;-85
2021/12/27 06:36:32;;;;;;;26.67;12.30;;;8.00;59.90;;;;;;5092208;28;20478;-85
2021/12/27 06:38:59;;;;;;;25.47;12.30;;;8.10;60.00;;;;;;5043001;28;20693;-85
2021/12/27 06:41:26;;;;;;;39.07;15.30;;;8.00;59.90;;;;;;5078862;28;20943;-85
2021/12/27 06:43:53;;;;;;;27.40;12.53;;;8.00;60.00;;;;;;5095558;28;20468;-84
2021/12/27 06:46:21;;;;;;;32.93;13.83;;;7.90;60.00;;;;;;5093927;28;20447;-82
2021/12/27 06:48:48;;;;;;;32.73;13.20;;;7.80;60.20;;;;;;5061284;28;20472;-85
2021/12/27 06:51:15;;;;;;;25.63;11.17;;;7.90;60.40;;;;;;5096717;28;20463;-84
2021/12/27 06:53:43;;;;;;;28.77;12.33;;;7.90;60.50;;;;;;5081977;28;20997;-85
2021/12/27 06:56:10;;;;;;;27.93;12.63;;;7.70;60.60;;;;;;5094575;27;20478;-85
2021/12/27 06:58:37;;;;;;;30.73;13.60;;;7.80;60.80;;;;;;5091018;28;20463;-82
2021/12/27 07:01:05;;;;;;;22.40;12.50;;;7.80;60.80;;;;;;5064085;28;20459;-85
2021/12/27 07:03:32;;;;;;;29.27;11.73;;;7.80;60.90;;;;;;5075390;28;20846;-85
2021/12/27 07:05:59;;;;;;;29.27;12.83;;;7.80;60.80;;;;;;5094468;28;20450;-85
2021/12/27 07:08:26;;;;;;;36.90;14.37;;;7.80;60.80;;;;;;5094041;28;20815;-84
2021/12/27 07:10:55;;;;;;;37.87;16.00;;;7.90;60.60;;;;;;5094821;28;20448;-86
2021/12/27 07:13:22;;;;;;;35.97;15.00;;;7.90;60.60;;;;;;5095369;28;20459;-85
2021/12/27 07:15:49;;;;;;;27.53;13.30;;;7.90;61.50;;;;;;5094583;28;20462;-85
2021/12/27 07:18:22;;;;;;;33.57;14.10;;;8.00;60.60;;;;;;5090816;28;20484;-86
2021/12/27 07:20:50;;;;;;;27.87;11.27;;;8.00;60.50;;;;;;5082673;28;20798;-85
2021/12/27 07:23:18;;;;;;;26.07;11.63;;;8.10;60.10;;;;;;5092739;28;20466;-85
2021/12/27 07:25:45;;;;;;;24.10;11.60;;;8.20;59.80;;;;;;5060930;28;20508;-85
2021/12/27 07:28:13;;;;;;;25.00;11.93;;;8.20;59.50;;;;;;5094658;28;20459;-85
2021/12/27 07:30:40;;;;;;;28.23;13.20;;;8.00;59.80;;;;;;5083641;28;20495;-84
2021/12/27 07:33:07;;;;;;;30.77;15.17;;;8.00;60.00;;;;;;5094387;28;20820;-84
2021/12/27 07:35:34;;;;;;;26.93;11.93;;;8.00;60.30;;;;;;5095246;28;20467;-86
2021/12/27 07:38:02;;;;;;;27.00;12.37;;;8.10;60.20;;;;;;5089885;28;20479;-85
2021/12/27 07:40:29;;;;;;;22.83;10.70;;;8.00;60.10;;;;;;5091296;28;20543;-84
2021/12/27 07:42:56;;;;;;;27.20;12.43;;;8.00;60.50;;;;;;5096242;28;20541;-84
2021/12/27 07:45:25;;;;;;;29.93;12.47;;;7.90;60.20;;;;;;5089162;28;20466;-85
2021/12/27 07:47:52;;;;;;;25.23;11.67;;;8.00;60.30;;;;;;5071396;28;20452;-84
2021/12/27 07:50:19;;;;;;;26.13;13.60;;;8.00;60.10;;;;;;5069143;28;20462;-85
2021/12/27 07:52:46;;;;;;;23.47;11.43;;;8.00;60.10;;;;;;5072280;28;20969;-84
2021/12/27 07:55:13;;;;;;;29.73;12.77;;;8.00;60.10;;;;;;5073310;28;20481;-85
2021/12/27 07:57:40;;;;;;;43.53;19.90;;;8.00;60.30;;;;;;5074004;28;20477;-86
2021/12/27 08:00:09;;;;;;;36.77;17.40;;;8.10;60.20;;;;;;5090410;27;20463;-86
2021/12/27 08:02:38;;;;;;;40.07;17.40;;;8.00;60.30;;;;;;5080575;28;20455;-86
2021/12/27 08:05:06;;;;;;;31.03;14.20;;;8.00;60.90;;;;;;5095196;28;20746;-86
2021/12/27 08:07:33;;;;;;;26.83;11.67;;;8.10;60.80;;;;;;5086386;28;20450;-85
2021/12/27 08:10:00;;;;;;;22.63;12.13;;;8.10;60.50;;;;;;5079704;28;20474;-86
2021/12/27 08:12:27;;;;;;;24.77;12.07;;;7.90;60.00;;;;;;5097093;27;20454;-86
2021/12/27 08:14:54;;;;;;;21.20;12.90;;;7.80;60.40;;;;;;5060826;28;20482;-84
2021/12/27 08:17:21;;;;;;;17.93;12.33;;;7.80;60.50;;;;;;5094822;28;20966;-84
2021/12/27 08:19:50;;;;;;;33.33;16.97;;;7.90;60.90;;;;;;5093415;27;20958;-87
2021/12/27 08:22:17;;;;;;;22.10;12.17;;;8.00;60.70;;;;;;5073830;28;21097;-86
2021/12/27 08:24:43;;;;;;;19.17;11.80;;;8.00;60.40;;;;;;5090922;27;20466;-86
2021/12/27 08:27:10;;;;;;;19.13;9.53;;;8.00;60.30;;;;;;5065732;28;20477;-85
2021/12/27 08:29:37;;;;;;;23.57;10.27;;;8.00;60.40;;;;;;5079010;28;20448;-84
2021/12/27 08:32:05;;;;;;;23.77;11.03;;;8.20;60.40;;;;;;5056142;28;20443;-86
2021/12/27 08:34:32;;;;;;;23.03;11.10;;;8.10;59.90;;;;;;5064772;28;20466;-85
2021/12/27 08:37:01;;;;;;;21.27;11.73;;;8.20;60.40;;;;;;5067427;27;20565;-86
2021/12/27 08:39:27;;;;;;;20.13;10.93;;;8.10;59.90;;;;;;5083305;28;20881;-86
2021/12/27 08:41:55;;;;;;;22.00;9.80;;;8.00;60.30;;;;;;5090424;27;20462;-86
2021/12/27 08:44:22;;;;;;;17.80;10.13;;;8.00;60.50;;;;;;5066825;28;20482;-85
2021/12/27 08:46:49;;;;;;;26.73;11.10;;;8.20;60.50;;;;;;5062799;28;20451;-85
2021/12/27 08:49:16;;;;;;;21.00;9.90;;;8.20;60.40;;;;;;5091191;28;20479;-85
2021/12/27 08:51:43;;;;;;;32.03;11.00;;;8.20;60.30;;;;;;5093029;28;20459;-85
2021/12/27 08:54:12;;;;;;;19.13;9.30;;;8.20;60.40;;;;;;5099351;28;20482;-85
2021/12/27 08:56:39;;;;;;;20.23;11.40;;;8.10;60.30;;;;;;5097469;28;20529;-85
2021/12/27 08:59:06;;;;;;;18.23;10.27;;;8.20;60.30;;;;;;5100272;28;20459;-85
2021/12/27 09:01:33;;;;;;;18.47;10.23;;;8.00;60.50;;;;;;5087590;28;20466;-85
2021/12/27 09:04:00;;;;;;;22.73;11.93;;;8.00;60.90;;;;;;5100003;28;20815;-84
2021/12/27 09:06:27;;;;;;;16.53;10.10;;;8.10;61.00;;;;;;5100051;28;20854;-85
2021/12/27 09:08:54;;;;;;;23.53;12.60;;;8.30;60.80;;;;;;5095886;27;20942;-85
2021/12/27 09:11:23;;;;;;;23.67;10.80;;;8.30;60.30;;;;;;5097024;27;20452;-85
2021/12/27 09:13:50;;;;;;;23.20;10.47;;;8.10;60.20;;;;;;5095639;27;20486;-85
2021/12/27 09:16:17;;;;;;;21.50;10.33;;;8.20;60.00;;;;;;5076658;27;20485;-86
2021/12/27 09:18:44;;;;;;;25.87;14.57;;;8.20;59.90;;;;;;5071920;28;20466;-85
2021/12/27 09:21:11;;;;;;;25.23;10.37;;;8.20;60.20;;;;;;5058970;28;20443;-85
2021/12/27 09:23:37;;;;;;;23.40;12.20;;;8.10;60.30;;;;;;5091763;27;20482;-86
2021/12/27 09:26:05;;;;;;;21.03;12.67;;;8.10;60.40;;;;;;5093933;28;20455;-83
2021/12/27 09:28:33;;;;;;;21.17;11.60;;;8.20;60.50;;;;;;5079699;28;20454;-87
2021/12/27 09:31:01;;;;;;;26.43;11.20;;;8.30;60.50;;;;;;5075708;27;20456;-84
2021/12/27 09:33:28;;;;;;;17.83;11.60;;;8.30;60.60;;;;;;5077796;27;20455;-86
2021/12/27 09:35:55;;;;;;;25.87;11.83;;;8.40;60.60;;;;;;5085326;28;20456;-86
2021/12/27 09:38:22;;;;;;;20.93;13.23;;;8.30;60.30;;;;;;5097676;28;20467;-86
2021/12/27 09:40:49;;;;;;;24.23;10.73;;;8.30;60.60;;;;;;5060627;28;20814;-87
2021/12/27 09:43:16;;;;;;;24.00;12.20;;;8.30;60.70;;;;;;5084194;28;21001;-86
2021/12/27 09:45:45;;;;;;;30.03;14.70;;;8.30;60.60;;;;;;5077784;28;20458;-86
2021/12/27 09:48:13;;;;;;;23.00;11.80;;;8.40;60.60;;;;;;5091288;28;20581;-86
2021/12/27 09:50:43;;;;;;;16.73;10.90;;;8.50;60.50;;;;;;5076608;28;20456;-86
2021/12/27 09:53:10;;;;;;;14.73;8.70;;;8.60;60.20;;;;;;5092402;27;20461;-86
2021/12/27 09:55:37;;;;;;;15.23;10.10;;;8.50;59.80;;;;;;5089448;28;20443;-87
2021/12/27 09:58:05;;;;;;;19.37;8.73;;;8.50;60.40;;;;;;5074668;28;20483;-87
2021/12/27 10:00:34;;;;;;;19.30;9.47;;;8.40;60.80;;;;;;5058853;28;20460;-86
2021/12/27 10:03:03;;;;;;;35.87;21.83;;;8.40;60.70;;;;;;5066554;28;20481;-86
2021/12/27 10:05:32;;;;;;;16.57;10.07;;;8.50;60.60;;;;;;5046644;28;20476;-86
2021/12/27 10:08:01;;;;;;;19.60;10.60;;;8.30;60.60;;;;;;5057663;27;21019;-86
2021/12/27 10:10:28;;;;;;;17.87;10.90;;;8.50;60.80;;;;;;5057870;28;20994;-86
2021/12/27 10:12:55;;;;;;;28.37;14.20;;;8.50;61.00;;;;;;5057714;28;20840;-86
2021/12/27 10:15:32;;;;;;;17.40;10.10;;;8.60;61.00;;;;;;5056917;28;20485;-86
2021/12/27 10:18:09;;;;;;;14.83;7.90;;;8.70;61.10;;;;;;5044798;28;20471;-85
2021/12/27 10:20:36;;;;;;;20.63;11.33;;;8.60;60.80;;;;;;5046349;28;20994;-85
2021/12/27 10:23:04;;;;;;;21.47;10.43;;;8.60;60.60;;;;;;5059911;27;21041;-86
2021/12/27 10:25:31;;;;;;;22.43;10.87;;;8.70;61.00;;;;;;5066087;28;20482;-86
2021/12/27 10:28:00;;;;;;;21.37;10.27;;;8.70;61.00;;;;;;5062285;28;21067;-85
2021/12/27 10:30:29;;;;;;;17.17;11.30;;;8.60;60.90;;;;;;5077478;28;20820;-87
2021/12/27 10:33:07;;;;;;;22.57;12.63;;;8.50;61.60;;;;;;5059421;28;21009;-87
2021/12/27 10:35:38;;;;;;;18.47;10.17;;;8.60;61.90;;;;;;5072513;28;20440;-85
2021/12/27 10:38:16;;;;;;;20.37;10.77;;;8.70;61.80;;;;;;5103154;28;20470;-86
2021/12/27 10:40:52;;;;;;;16.60;8.30;;;8.70;61.30;;;;;;5097426;28;20529;-85
2021/12/27 10:43:32;;;;;;;14.90;9.03;;;8.60;61.10;;;;;;5101535;27;20462;-87
2021/12/27 10:46:00;;;;;;;17.67;10.17;;;8.70;61.30;;;;;;5098100;28;20486;-85
2021/12/27 10:48:33;;;;;;;15.83;8.37;;;8.70;61.30;;;;;;5082458;28;20483;-85
2021/12/27 10:51:01;;;;;;;19.53;10.43;;;8.90;61.20;;;;;;5083667;28;20464;-83
2021/12/27 10:53:41;;;;;;;23.90;9.70;;;8.90;60.90;;;;;;5067240;28;20822;-86
2021/12/27 10:56:08;;;;;;;15.87;9.13;;;8.80;60.90;;;;;;5082453;28;20458;-86
2021/12/27 10:58:38;;;;;;;13.73;9.20;;;8.70;61.30;;;;;;5079780;28;20830;-86
2021/12/27 11:01:08;;;;;;;17.00;12.40;;;8.70;61.50;;;;;;5096255;28;20458;-86
2021/12/27 11:03:37;;;;;;;15.57;9.00;;;8.80;61.30;;;;;;5078117;28;20904;-87
2021/12/27 11:06:07;;;;;;;19.87;11.10;;;8.70;61.00;;;;;;5065915;28;20447;-86
2021/12/27 11:08:36;;;;;;;18.50;10.27;;;8.70;61.50;;;;;;5102138;27;20451;-84
2021/12/27 11:11:04;;;;;;;17.20;9.70;;;8.70;61.60;;;;;;5075095;28;21100;-86
2021/12/27 11:13:33;;;;;;;22.40;11.20;;;8.80;61.80;;;;;;5093015;28;20979;-86
2021/12/27 11:16:00;;;;;;;20.67;11.30;;;8.70;61.30;;;;;;5078229;28;20465;-84
2021/12/27 11:18:27;;;;;;;18.40;9.40;;;8.80;61.70;;;;;;5095048;28;21022;-87
2021/12/27 11:20:57;;;;;;;23.50;9.13;;;8.50;61.50;;;;;;5080426;28;20455;-86
2021/12/27 11:23:27;;;;;;;22.60;12.93;;;8.40;61.80;;;;;;5096402;27;20469;-86
2021/12/27 11:26:02;;;;;;;25.50;11.10;;;8.60;61.90;;;;;;5094488;28;20454;-86
2021/12/27 11:28:31;;;;;;;20.03;9.60;;;8.70;62.00;;;;;;5061407;28;21067;-87
2021/12/27 11:31:02;;;;;;;20.43;10.90;;;8.80;61.70;;;;;;5044235;28;20447;-87
2021/12/27 11:33:30;;;;;;;26.17;10.93;;;9.00;61.60;;;;;;5097052;28;20451;-86
2021/12/27 11:36:07;;;;;;;19.13;10.70;;;9.10;62.00;;;;;;5095628;28;20704;-86
2021/12/27 11:38:37;;;;;;;24.00;8.80;;;9.30;60.90;;;;;;5085133;28;20470;-86
2021/12/27 11:41:07;;;;;;;20.03;10.20;;;9.30;60.20;;;;;;5070349;28;20454;-86
2021/12/27 11:43:54;;;;;;;21.00;10.10;;;9.30;60.20;;;;;;5091534;28;20581;-86
2021/12/27 11:46:21;;;;;;;20.13;10.80;;;9.40;60.40;;;;;;5094623;28;20545;-85
2021/12/27 11:48:50;;;;;;;25.50;15.27;;;9.30;60.50;;;;;;5078613;28;20521;-86
2021/12/27 11:51:31;;;;;;;22.20;10.90;;;9.10;61.00;;;;;;5076149;28;20486;-86
2021/12/27 11:54:01;;;;;;;21.33;10.97;;;9.10;61.00;;;;;;5094511;28;20499;-86
2021/12/27 11:56:44;;;;;;;20.63;9.80;;;9.00;61.60;;;;;;5074179;28;20443;-86
2021/12/27 11:59:35;;;;;;;23.90;11.17;;;9.00;61.60;;;;;;5062181;28;20992;-86
2021/12/27 12:02:19;;;;;;;24.53;11.20;;;9.00;61.80;;;;;;5062990;28;20460;-84
2021/12/27 12:04:47;;;;;;;16.17;10.00;;;8.90;61.50;;;;;;5078054;28;20482;-86
2021/12/27 12:07:48;;;;;;;17.00;12.43;;;9.00;61.40;;;;;;5077044;28;20792;-86
2021/12/27 12:10:18;;;;;;;17.63;10.63;;;9.10;61.50;;;;;;5057055;28;20500;-86
2021/12/27 12:13:16;;;;;;;21.57;10.70;;;9.20;61.60;;;;;;5094359;28;20538;-86
2021/12/27 12:16:03;;;;;;;22.70;10.63;;;9.20;61.60;;;;;;5094133;28;20454;-85
2021/12/27 12:18:32;;;;;;;14.40;9.07;;;9.30;61.00;;;;;;5078978;28;20475;-86
2021/12/27 12:21:00;;;;;;;20.10;10.20;;;9.30;60.70;;;;;;5094741;28;20446;-86
2021/12/27 12:23:27;;;;;;;21.57;11.37;;;9.20;60.70;;;;;;5083441;28;20954;-86
2021/12/27 12:26:00;;;;;;;17.50;11.87;;;9.30;61.10;;;;;;5093425;28;20463;-86
2021/12/27 12:28:28;;;;;;;21.10;10.80;;;9.40;61.00;;;;;;5059828;28;20459;-85
2021/12/27 12:30:56;;;;;;;24.40;12.00;;;9.40;60.90;;;;;;5084477;28;20474;-85
2021/12/27 12:33:25;;;;;;;17.27;11.00;;;9.50;60.90;;;;;;5102230;28;20511;-86
2021/12/27 12:35:55;;;;;;;16.47;10.13;;;9.50;60.60;;;;;;5099603;28;20457;-83
2021/12/27 12:38:25;;;;;;;18.63;11.90;;;9.30;60.30;;;;;;5083968;28;20466;-85
2021/12/27 12:41:09;;;;;;;21.17;12.40;;;9.20;61.10;;;;;;5101286;28;20443;-86
2021/12/27 12:43:40;;;;;;;23.17;12.20;;;9.20;61.50;;;;;;5100821;28;20474;-86
2021/12/27 12:46:20;;;;;;;20.67;11.10;;;9.30;61.60;;;;;;5084509;27;20457;-86